Time;durP1;ratioP1;P1;durP2;ratioP2;P2;SDS_P1;SDS_P2;PMS_P1;PMS_P2;Temp;Humidity;BMP_temperature;BMP_pressure;BME280_temperature;BME280_humidity;BME280_pressure;Samples;Min_cycle;Max_cycle;Signal;HPM_P1;HPM_P2
2023/12/20 00:01:40;;;;;;;9.52;1.90;;;;;;;7.70;81.66;101226.31;7387141;19;20019;-63
2023/12/20 03:24:36;;;;;;;10.15;2.00;;;;;;;7.41;80.63;101088.28;7389188;19;20027;-60
2023/12/20 03:27:03;;;;;;;10.52;2.05;;;;;;;7.49;80.30;101087.84;7396214;19;20048;-60
2023/12/20 03:29:30;;;;;;;11.20;1.85;;;;;;;7.36;80.12;101078.91;7388492;19;20035;-61
2023/12/20 03:31:57;;;;;;;10.60;2.08;;;;;;;7.42;80.41;101089.09;7392357;19;20014;-60
2023/12/20 03:34:24;;;;;;;10.23;1.60;;;;;;;7.48;80.00;101080.88;7390567;19;20022;-60
2023/12/20 03:36:52;;;;;;;11.88;1.80;;;;;;;7.45;79.95;101078.41;7391283;19;20517;-60
2023/12/20 03:39:19;;;;;;;7.25;1.77;;;;;;;7.52;79.95;101080.63;7386877;19;20044;-60
2023/12/20 03:41:46;;;;;;;9.95;1.95;;;;;;;7.55;79.71;101071.66;7390044;19;20037;-60
2023/12/20 03:44:28;;;;;;;5.97;1.50;;;;;;;7.63;79.37;101068.59;7427343;19;20372;-61
2023/12/20 03:46:56;;;;;;;11.05;2.17;;;;;;;7.65;79.50;101067.59;7426635;19;20541;-59
2023/12/20 03:49:24;;;;;;;9.20;2.15;;;;;;;7.52;80.00;101072.72;7425227;19;20014;-61
2023/12/20 03:51:52;;;;;;;12.18;2.55;;;;;;;7.53;80.13;101071.78;7427608;19;20014;-61
2023/12/20 03:54:20;;;;;;;10.70;1.83;;;;;;;7.54;80.05;101065.56;7427494;19;20665;-61
2023/12/20 03:56:48;;;;;;;10.93;2.05;;;;;;;7.54;80.16;101059.44;7427789;19;20414;-61
2023/12/20 03:59:17;;;;;;;10.88;2.28;;;;;;;7.54;80.25;101048.91;7425915;19;20026;-61
2023/12/20 04:01:45;;;;;;;11.68;2.17;;;;;;;7.48;80.01;101036.94;7427558;19;20082;-59
2023/12/20 04:04:13;;;;;;;13.48;2.15;;;;;;;7.50;80.31;101048.22;7424825;19;20034;-60
2023/12/20 04:06:42;;;;;;;11.05;2.10;;;;;;;7.55;80.26;101047.94;7425631;19;20018;-61
2023/12/20 04:09:10;;;;;;;10.35;1.95;;;;;;;7.44;80.36;101038.03;7425141;19;20038;-61
2023/12/20 04:11:38;;;;;;;9.63;2.20;;;;;;;7.52;80.21;101035.81;7426135;19;20022;-59
2023/12/20 04:14:07;;;;;;;10.13;2.10;;;;;;;7.48;80.06;101023.75;7427361;19;20026;-61
2023/12/20 04:16:35;;;;;;;10.05;1.98;;;;;;;7.53;79.98;101034.88;7427118;19;20035;-61
2023/12/20 04:20:27;;;;;;;11.60;2.17;;;;;;;7.47;80.15;101022.03;7427279;19;20309;-60
2023/12/20 04:22:54;;;;;;;11.32;2.20;;;;;;;7.53;79.52;101026.13;7431226;19;20018;-61
2023/12/20 04:25:22;;;;;;;11.43;2.13;;;;;;;7.50;80.15;101027.13;7427724;19;20081;-61
2023/12/20 04:27:50;;;;;;;15.55;2.35;;;;;;;7.60;79.83;101035.38;7426913;19;20101;-61
2023/12/20 04:30:18;;;;;;;10.18;2.17;;;;;;;7.57;79.38;101031.13;7424228;19;20455;-61
2023/12/20 04:32:46;;;;;;;13.38;2.10;;;;;;;7.52;79.63;101022.66;7427781;19;20011;-61
2023/12/20 04:35:14;;;;;;;11.77;2.20;;;;;;;7.48;79.80;101028.19;7426259;19;20022;-59
2023/12/20 04:37:42;;;;;;;9.25;2.30;;;;;;;7.58;79.41;101031.97;7425734;19;20421;-61
2023/12/20 04:40:11;;;;;;;10.10;2.22;;;;;;;7.61;79.45;101017.78;7424382;19;20021;-61
2023/12/20 04:42:39;;;;;;;9.48;2.10;;;;;;;7.51;79.42;101022.72;7427630;19;20085;-61
2023/12/20 04:45:07;;;;;;;12.90;2.28;;;;;;;7.57;79.58;101015.31;7429204;19;20026;-59
2023/12/20 04:47:35;;;;;;;14.23;3.17;;;;;;;7.50;79.25;101023.66;7426669;19;20030;-61
2023/12/20 04:50:03;;;;;;;8.30;2.10;;;;;;;7.57;79.70;101023.22;7424012;19;20021;-61
2023/12/20 04:52:32;;;;;;;12.25;2.08;;;;;;;7.61;79.12;101026.53;7427125;19;20018;-61
2023/12/20 04:55:00;;;;;;;12.13;2.15;;;;;;;7.56;79.37;101031.22;7427091;19;20025;-61
2023/12/20 04:57:29;;;;;;;14.13;2.28;;;;;;;7.48;79.56;101029.03;7426594;19;20011;-61
2023/12/20 04:59:56;;;;;;;13.85;2.33;;;;;;;7.62;79.39;101019.47;7423613;19;20018;-61
2023/12/20 05:02:24;;;;;;;10.30;2.30;;;;;;;7.68;79.21;101017.34;7427219;19;20046;-61
2023/12/20 05:04:52;;;;;;;9.38;1.85;;;;;;;7.62;79.17;101007.13;7427134;19;20022;-61
2023/12/20 05:07:22;;;;;;;14.82;2.42;;;;;;;7.51;79.70;101005.13;7426733;19;20093;-61
2023/12/20 05:09:50;;;;;;;12.23;2.30;;;;;;;7.59;79.84;100999.41;7423679;19;20011;-61
2023/12/20 05:12:18;;;;;;;12.52;2.20;;;;;;;7.57;79.36;101004.78;7426008;19;20014;-61
2023/12/20 05:14:46;;;;;;;11.63;2.35;;;;;;;7.61;79.67;100999.34;7426645;19;20014;-61
2023/12/20 05:17:14;;;;;;;11.40;2.38;;;;;;;7.61;79.47;101005.44;7426504;19;20022;-61
2023/12/20 05:19:42;;;;;;;13.02;2.45;;;;;;;7.61;79.79;101004.59;7422603;19;20359;-61
2023/12/20 05:22:10;;;;;;;15.93;2.40;;;;;;;7.65;79.67;100996.44;7425740;19;20018;-61
2023/12/20 05:24:38;;;;;;;12.07;3.00;;;;;;;7.64;79.40;100993.91;7425587;19;20019;-61
2023/12/20 05:27:06;;;;;;;12.57;2.42;;;;;;;7.74;79.13;101002.94;7425535;19;20376;-61
2023/12/20 05:29:33;;;;;;;14.30;2.88;;;;;;;7.69;79.55;100997.09;7420993;19;20016;-61
2023/12/20 05:32:01;;;;;;;12.13;2.35;;;;;;;7.62;79.74;101001.88;7396831;19;20022;-61
2023/12/20 05:34:31;;;;;;;15.48;2.75;;;;;;;7.61;79.66;100999.34;7397980;19;20010;-61
2023/12/20 05:36:59;;;;;;;14.57;2.90;;;;;;;7.68;79.35;100998.91;7396986;19;20490;-61
2023/12/20 05:39:28;;;;;;;13.13;2.67;;;;;;;7.78;78.98;100983.38;7394922;19;20022;-61
2023/12/20 05:41:56;;;;;;;16.08;3.30;;;;;;;7.76;79.09;100999.28;7394867;19;20010;-61
2023/12/20 05:44:24;;;;;;;15.20;2.55;;;;;;;7.69;79.04;101002.38;7396531;19;20010;-61
2023/12/20 05:46:52;;;;;;;15.05;2.35;;;;;;;7.61;79.14;101001.97;7396766;19;20022;-61
2023/12/20 05:49:20;;;;;;;18.02;2.72;;;;;;;7.55;78.84;101014.56;7394679;19;20030;-61
2023/12/20 05:51:48;;;;;;;15.60;2.65;;;;;;;7.73;78.85;101003.91;7396112;19;20019;-61
2023/12/20 05:54:16;;;;;;;16.40;3.38;;;;;;;7.67;78.76;101001.59;7396686;19;20027;-61
2023/12/20 05:56:43;;;;;;;17.67;3.05;;;;;;;7.68;78.66;100998.91;7397002;19;20045;-61
2023/12/20 05:59:11;;;;;;;15.95;2.85;;;;;;;7.72;78.57;100987.22;7394003;19;20037;-61
2023/12/20 06:01:39;;;;;;;15.52;2.65;;;;;;;7.81;78.52;100980.56;7395582;19;20035;-61
2023/12/20 06:04:07;;;;;;;17.10;3.00;;;;;;;7.78;78.69;100984.25;7396120;19;20038;-61
2023/12/20 06:06:41;;;;;;;15.02;2.85;;;;;;;7.73;79.03;100977.53;7395726;19;20493;-61
2023/12/20 06:09:09;;;;;;;17.27;2.80;;;;;;;7.71;79.20;100982.06;7394512;19;20418;-61
2023/12/20 06:11:37;;;;;;;15.82;3.00;;;;;;;7.57;79.76;100975.78;7395790;19;20026;-61
2023/12/20 06:14:05;;;;;;;16.55;2.88;;;;;;;7.68;79.61;100969.06;7396099;19;20014;-60
2023/12/20 06:16:33;;;;;;;10.90;2.45;;;;;;;7.72;79.37;100967.94;7394869;19;20022;-61
2023/12/20 06:19:01;;;;;;;16.05;3.50;;;;;;;7.68;79.09;100975.16;7393925;19;20344;-61
2023/12/20 06:21:29;;;;;;;18.85;3.17;;;;;;;7.67;79.25;100975.25;7393848;19;20363;-61
2023/12/20 06:23:59;;;;;;;16.23;2.92;;;;;;;7.74;78.98;100981.84;7395468;19;20027;-61
2023/12/20 06:26:27;;;;;;;15.63;3.13;;;;;;;7.84;78.89;100974.28;7393448;19;20031;-61
2023/12/20 06:28:55;;;;;;;12.27;2.90;;;;;;;7.83;78.74;100973.44;7391076;19;20018;-60
2023/12/20 06:31:23;;;;;;;13.45;2.97;;;;;;;7.88;78.99;100973.16;7395112;19;20051;-59
2023/12/20 06:33:57;;;;;;;16.95;4.18;;;;;;;7.80;79.01;100966.53;7394613;19;20046;-60
2023/12/20 06:36:28;;;;;;;14.35;2.95;;;;;;;7.86;78.92;100951.28;7395430;19;20029;-60
2023/12/20 06:38:56;;;;;;;15.85;3.15;;;;;;;7.88;78.83;100954.69;7393372;19;20384;-61
2023/12/20 06:41:24;;;;;;;18.27;2.90;;;;;;;7.84;78.88;100950.56;7393854;19;20347;-61
2023/12/20 06:43:53;;;;;;;17.10;3.35;;;;;;;7.86;78.96;100925.81;7393633;19;20022;-61
2023/12/20 06:46:21;;;;;;;17.75;2.95;;;;;;;7.79;78.92;100927.09;7394713;19;20021;-61
2023/12/20 06:48:49;;;;;;;12.75;2.28;;;;;;;7.83;78.97;100944.44;7393401;19;20018;-60
2023/12/20 06:51:19;;;;;;;17.30;3.08;;;;;;;7.78;78.83;100934.16;7394835;19;20010;-61
2023/12/20 06:53:47;;;;;;;19.08;3.20;;;;;;;7.83;78.64;100944.44;7394782;19;20014;-60
2023/12/20 06:56:16;;;;;;;17.08;3.75;;;;;;;7.87;78.73;100926.66;7394139;19;20014;-61
2023/12/20 06:58:46;;;;;;;16.27;3.33;;;;;;;7.92;78.70;100924.56;7392144;19;20024;-61
2023/12/20 07:01:15;;;;;;;17.88;2.92;;;;;;;7.90;78.78;100918.53;7390399;19;20014;-61
2023/12/20 07:03:43;;;;;;;15.27;3.42;;;;;;;7.88;78.79;100934.44;7394114;19;20017;-61
2023/12/20 07:06:11;;;;;;;16.73;3.70;;;;;;;7.87;79.03;100927.50;7393836;19;20027;-61
2023/12/20 07:08:40;;;;;;;13.95;3.67;;;;;;;7.99;78.90;100923.25;7392482;19;20022;-61
2023/12/20 07:11:08;;;;;;;15.38;2.90;;;;;;;7.94;78.72;100934.09;7393632;19;20507;-61
2023/12/20 07:13:35;;;;;;;19.83;3.83;;;;;;;7.92;78.82;100920.13;7393968;19;20382;-61
2023/12/20 07:16:04;;;;;;;16.05;3.22;;;;;;;8.01;78.57;100921.38;7392817;19;20014;-60
2023/12/20 07:18:31;;;;;;;15.05;3.17;;;;;;;7.93;78.87;100918.34;7392041;19;20392;-61
2023/12/20 07:20:59;;;;;;;18.88;3.85;;;;;;;7.89;78.94;100908.94;7392200;19;20022;-61
2023/12/20 07:23:27;;;;;;;15.35;2.95;;;;;;;7.87;78.95;100914.31;7393254;19;20023;-61
2023/12/20 07:25:55;;;;;;;19.27;3.53;;;;;;;7.89;78.74;100909.78;7393589;19;20546;-60
2023/12/20 07:28:24;;;;;;;16.55;2.90;;;;;;;7.97;78.77;100925.97;7390941;19;20065;-60
2023/12/20 07:30:52;;;;;;;15.45;3.10;;;;;;;7.93;78.95;100916.56;7392090;19;20028;-60
2023/12/20 07:33:21;;;;;;;18.20;3.42;;;;;;;7.94;79.07;100918.28;7392974;19;20022;-60
2023/12/20 07:35:51;;;;;;;15.75;3.05;;;;;;;7.95;79.09;100917.31;7392511;19;20018;-61
2023/12/20 07:38:20;;;;;;;20.75;3.92;;;;;;;7.94;79.25;100912.16;7391222;19;20022;-61
2023/12/20 07:40:47;;;;;;;17.25;3.22;;;;;;;8.03;78.91;100916.88;7390304;19;20018;-61
2023/12/20 07:43:15;;;;;;;14.05;3.08;;;;;;;8.02;79.18;100910.75;7392950;19;20019;-60
2023/12/20 07:45:43;;;;;;;18.25;3.58;;;;;;;7.99;78.89;100921.47;7392550;19;20058;-61
2023/12/20 07:48:11;;;;;;;16.38;3.40;;;;;;;7.99;79.07;100910.09;7392111;19;20018;-61
2023/12/20 07:50:39;;;;;;;17.63;2.92;;;;;;;8.05;78.80;100896.50;7392055;19;20081;-61
2023/12/20 07:53:07;;;;;;;13.52;2.97;;;;;;;8.06;79.33;100921.97;7392312;19;20018;-61
2023/12/20 07:55:35;;;;;;;18.23;3.75;;;;;;;8.09;79.31;100908.59;7392897;19;20355;-61
2023/12/20 07:58:05;;;;;;;22.70;3.50;;;;;;;8.07;79.46;100898.13;7392002;19;20014;-61
2023/12/20 08:00:33;;;;;;;15.75;3.28;;;;;;;8.07;79.75;100905.19;7390899;19;20022;-61
2023/12/20 08:03:03;;;;;;;16.63;2.88;;;;;;;8.09;79.63;100899.81;7390563;19;20090;-61
2023/12/20 08:05:31;;;;;;;21.13;4.28;;;;;;;8.07;79.63;100895.47;7392347;19;20029;-60
2023/12/20 08:07:59;;;;;;;20.58;3.90;;;;;;;8.03;79.80;100888.69;7391347;19;20029;-61
2023/12/20 08:10:29;;;;;;;15.32;3.20;;;;;;;8.10;79.91;100883.06;7389880;19;20018;-61
2023/12/20 08:12:57;;;;;;;17.35;3.30;;;;;;;8.09;80.21;100886.63;7391696;19;20022;-59
2023/12/20 08:15:25;;;;;;;15.30;3.22;;;;;;;8.11;79.75;100892.66;7390146;19;20025;-61
2023/12/20 08:17:53;;;;;;;18.30;3.88;;;;;;;8.10;79.26;100880.44;7391293;19;20014;-59
2023/12/20 08:20:21;;;;;;;16.95;3.67;;;;;;;8.18;79.32;100896.63;7389309;19;20019;-61
2023/12/20 08:22:59;;;;;;;13.55;2.67;;;;;;;8.11;79.73;100877.69;7389913;19;20018;-60
2023/12/20 08:25:28;;;;;;;17.23;3.33;;;;;;;8.11;79.07;100867.13;7391459;19;20180;-60
2023/12/20 08:27:56;;;;;;;17.33;3.38;;;;;;;8.12;79.03;100852.16;7391505;19;20022;-60
2023/12/20 08:30:24;;;;;;;17.67;3.15;;;;;;;8.25;78.59;100848.66;7387380;19;20032;-59
2023/12/20 08:32:52;;;;;;;15.40;2.83;;;;;;;8.30;78.90;100854.50;7390920;19;20357;-60
2023/12/20 08:35:20;;;;;;;17.00;2.97;;;;;;;8.33;78.71;100856.09;7391616;19;20023;-59
2023/12/20 08:37:48;;;;;;;11.55;2.50;;;;;;;8.30;78.77;100865.03;7391650;19;20018;-60
2023/12/20 08:40:16;;;;;;;13.38;3.03;;;;;;;8.25;79.30;100858.38;7388349;19;20022;-60
2023/12/20 08:42:44;;;;;;;17.75;3.58;;;;;;;8.23;79.03;100849.69;7390754;19;20384;-61
2023/12/20 08:45:11;;;;;;;16.10;2.88;;;;;;;8.27;78.83;100835.38;7391146;19;20026;-60
2023/12/20 08:47:41;;;;;;;17.88;3.67;;;;;;;8.44;78.86;100837.00;7390720;19;20015;-60
2023/12/20 08:50:09;;;;;;;13.75;3.03;;;;;;;8.31;79.27;100828.94;7388610;19;20022;-60
2023/12/20 08:52:37;;;;;;;14.13;2.83;;;;;;;8.40;78.75;100822.31;7390828;19;20015;-61
2023/12/20 08:55:05;;;;;;;13.45;3.08;;;;;;;8.45;78.94;100822.84;7390711;19;20371;-60
2023/12/20 08:57:33;;;;;;;14.75;3.13;;;;;;;8.43;79.08;100833.50;7391391;19;20040;-60
2023/12/20 09:00:02;;;;;;;16.08;3.35;;;;;;;8.33;79.71;100828.88;7387423;19;20017;-60
2023/12/20 09:02:32;;;;;;;13.80;3.42;;;;;;;8.28;80.02;100832.66;7389368;19;20019;-61
2023/12/20 09:05:00;;;;;;;17.50;3.10;;;;;;;8.19;80.59;100837.63;7391067;19;20019;-66
2023/12/20 09:07:31;;;;;;;14.85;2.90;;;;;;;8.24;80.56;100823.22;7397840;19;20019;-63
2023/12/20 09:09:59;;;;;;;14.35;3.15;;;;;;;8.37;80.61;100828.59;7394825;19;20344;-63
2023/12/20 09:12:28;;;;;;;9.00;2.10;;;;;;;8.27;79.70;100824.81;7398220;19;20021;-63
2023/12/20 09:14:56;;;;;;;11.65;2.15;;;;;;;8.24;79.75;100828.50;7397374;19;20029;-66
2023/12/20 09:17:23;;;;;;;15.77;3.13;;;;;;;8.21;80.25;100833.13;7397739;19;20078;-66
2023/12/20 09:19:53;;;;;;;18.75;3.28;;;;;;;8.19;80.47;100814.75;7394972;19;20018;-62
2023/12/20 09:22:22;;;;;;;13.55;2.60;;;;;;;8.25;80.50;100813.53;7396969;19;20344;-62
2023/12/20 09:24:50;;;;;;;21.05;3.58;;;;;;;8.23;81.04;100845.25;7397559;19;20382;-62
2023/12/20 09:27:18;;;;;;;15.25;2.88;;;;;;;8.20;81.01;100834.06;7397549;19;20050;-64
2023/12/20 09:29:48;;;;;;;15.93;3.42;;;;;;;8.19;81.20;100842.91;7393076;19;20022;-65
2023/12/20 09:32:16;;;;;;;13.63;3.05;;;;;;;8.18;81.12;100831.53;7397142;19;20018;-62
2023/12/20 09:34:44;;;;;;;12.07;3.03;;;;;;;8.28;81.41;100832.66;7396697;19;20027;-63
2023/12/20 09:37:12;;;;;;;12.60;2.72;;;;;;;8.17;81.73;100850.09;7397111;19;20042;-62
2023/12/20 09:39:40;;;;;;;14.90;2.92;;;;;;;8.24;82.04;100859.28;7394700;19;20018;-64
2023/12/20 09:42:09;;;;;;;18.10;3.05;;;;;;;8.14;83.18;100924.13;7394040;19;20018;-65
2023/12/20 09:44:40;;;;;;;14.13;3.58;;;;;;;7.86;83.45;100928.44;7396489;19;20023;-63
2023/12/20 09:47:08;;;;;;;8.57;1.40;;;;;;;7.63;82.02;100926.28;7396862;19;20026;-66
2023/12/20 09:49:37;;;;;;;5.75;1.10;;;;;;;7.46;81.51;100919.38;7394699;19;20015;-65
2023/12/20 09:52:09;;;;;;;4.28;1.10;;;;;;;7.41;81.26;100901.22;7396685;19;20025;-65
2023/12/20 09:54:37;;;;;;;4.68;1.00;;;;;;;7.31;80.10;100898.25;7396424;19;20356;-62
2023/12/20 09:57:05;;;;;;;8.32;2.30;;;;;;;7.19;80.21;100885.78;7395921;19;20018;-63
2023/12/20 09:59:33;;;;;;;9.05;2.92;;;;;;;7.39;80.39;100904.84;7393960;19;20022;-64
2023/12/20 10:02:03;;;;;;;11.77;3.53;;;;;;;7.52;80.53;100895.31;7393736;19;20135;-61
2023/12/20 10:04:32;;;;;;;10.85;3.08;;;;;;;7.48;80.25;100892.00;7396219;19;20392;-61
2023/12/20 10:07:05;;;;;;;6.53;1.52;;;;;;;7.43;79.99;100896.69;7394875;19;20379;-64
2023/12/20 10:09:34;;;;;;;;;;;;;;;7.40;79.96;100896.00;7394696;19;20035;-63
2023/12/20 10:12:02;;;;;;;6.90;1.67;;;;;;;7.41;80.28;100900.38;7394351;19;19914;-62
2023/12/20 10:14:30;;;;;;;5.65;1.52;;;;;;;7.47;80.26;100892.94;7391590;19;20015;-63
2023/12/20 10:17:03;;;;;;;6.57;1.42;;;;;;;7.45;79.89;100883.44;7393980;19;20015;-60
2023/12/20 10:19:32;;;;;;;4.70;1.17;;;;;;;7.38;80.32;100887.38;7393326;19;20014;-63
2023/12/20 10:22:01;;;;;;;4.93;0.93;;;;;;;7.37;80.05;100894.44;7393694;19;20448;-62
2023/12/20 10:24:30;;;;;;;4.15;0.90;;;;;;;7.44;80.05;100901.03;7395979;19;20031;-60
2023/12/20 10:27:05;;;;;;;3.78;1.05;;;;;;;7.43;80.14;100907.22;7395451;19;20028;-63
2023/12/20 10:29:37;;;;;;;4.68;1.20;;;;;;;7.41;80.18;100903.84;7393025;19;20023;-62
2023/12/20 10:32:22;;;;;;;6.00;0.98;;;;;;;7.39;79.74;100905.69;7393525;19;20022;-63
2023/12/20 10:34:51;;;;;;;5.05;1.25;;;;;;;7.44;79.98;100908.94;7393607;19;20056;-63
2023/12/20 10:37:20;;;;;;;7.60;1.40;;;;;;;7.49;79.71;100909.50;7395634;19;20030;-64
2023/12/20 10:39:55;;;;;;;4.55;0.95;;;;;;;7.49;79.72;100903.41;7392573;19;20385;-63
2023/12/20 10:42:29;;;;;;;6.20;1.05;;;;;;;7.43;79.83;100907.22;7391484;19;20019;-63
2023/12/20 10:45:00;;;;;;;5.78;1.35;;;;;;;7.49;79.73;100903.41;7395288;19;20370;-62
2023/12/20 10:47:30;;;;;;;8.88;1.83;;;;;;;7.44;79.21;100903.66;7395949;19;20347;-62
2023/12/20 10:49:59;;;;;;;8.00;2.30;;;;;;;7.39;79.77;100905.69;7392158;19;20072;-63
2023/12/20 10:52:30;;;;;;;6.80;1.80;;;;;;;7.48;79.12;100907.81;7394698;19;20015;-63
2023/12/20 10:55:00;;;;;;;7.88;1.20;;;;;;;7.46;79.04;100907.03;7396447;19;20014;-63
2023/12/20 10:57:29;;;;;;;5.63;1.52;;;;;;;7.49;78.90;100891.06;7394534;19;20019;-63
2023/12/20 11:00:04;;;;;;;4.93;1.40;;;;;;;7.63;78.63;100881.47;7392653;19;20015;-63
2023/12/20 11:02:33;;;;;;;5.80;1.40;;;;;;;7.49;78.81;100869.97;7392850;19;20018;-63
2023/12/20 11:05:22;;;;;;;4.85;1.08;;;;;;;7.52;79.02;100875.09;7394682;19;20360;-63
2023/12/20 11:07:58;;;;;;;6.43;1.50;;;;;;;7.47;78.85;100886.81;7393171;19;20327;-63
2023/12/20 11:10:37;;;;;;;8.23;1.55;;;;;;;7.47;78.43;100877.13;7392201;19;20027;-63
2023/12/20 11:13:20;;;;;;;5.20;1.60;;;;;;;7.49;78.09;100880.53;7392483;19;20022;-63
2023/12/20 11:15:48;;;;;;;6.50;1.45;;;;;;;7.43;78.34;100877.41;7394096;19;20010;-63
2023/12/20 11:18:16;;;;;;;10.18;1.65;;;;;;;7.51;78.14;100888.31;7393351;19;20046;-63
2023/12/20 11:20:44;;;;;;;6.88;1.65;;;;;;;7.53;78.39;100889.94;7391698;19;20026;-61
2023/12/20 11:23:13;;;;;;;7.30;1.40;;;;;;;7.50;78.37;100879.59;7391684;19;20081;-61
2023/12/20 11:25:51;;;;;;;6.43;1.33;;;;;;;7.57;78.36;100885.34;7393900;19;20495;-61
2023/12/20 11:28:26;;;;;;;7.32;1.35;;;;;;;7.63;78.22;100877.09;7390182;19;20029;-61
2023/12/20 11:30:56;;;;;;;8.70;1.58;;;;;;;7.59;78.48;100867.63;7393580;19;20015;-61
2023/12/20 11:33:31;;;;;;;6.45;1.45;;;;;;;7.72;78.10;100879.16;7393168;19;20022;-61
2023/12/20 11:35:59;;;;;;;;;;;;;;;7.61;77.17;100872.84;7392572;19;20027;-63
2023/12/20 11:38:37;;;;;;;8.10;2.30;;;;;;;7.62;77.76;100863.97;7392559;19;19933;-61
2023/12/20 11:41:06;;;;;;;11.50;2.20;;;;;;;7.76;77.79;100861.38;7392574;19;20017;-59
2023/12/20 11:43:37;;;;;;;8.50;1.80;;;;;;;7.86;76.95;100864.28;7393486;19;20493;-61
2023/12/20 11:46:07;;;;;;;10.50;1.95;;;;;;;7.79;76.95;100872.59;7391979;19;20014;-61
2023/12/20 11:48:40;;;;;;;7.72;1.92;;;;;;;7.73;76.93;100865.03;7392649;19;20482;-62
2023/12/20 11:51:12;;;;;;;7.95;1.88;;;;;;;7.81;77.01;100877.75;7392996;19;20023;-62
2023/12/20 11:53:42;;;;;;;9.52;1.90;;;;;;;7.79;76.97;100872.59;7392922;19;20021;-62
2023/12/20 11:56:10;;;;;;;8.68;1.60;;;;;;;7.85;77.12;100873.16;7390594;19;20018;-62
2023/12/20 11:58:38;;;;;;;10.43;1.98;;;;;;;7.87;76.93;100873.91;7389858;19;20047;-62
2023/12/20 12:01:07;;;;;;;7.55;1.33;;;;;;;7.97;76.45;100875.88;7391669;19;20699;-62
2023/12/20 12:03:36;;;;;;;8.73;1.80;;;;;;;8.11;76.16;100887.38;7390551;19;20376;-62
2023/12/20 12:06:04;;;;;;;10.27;2.30;;;;;;;8.20;76.28;100882.38;7391028;19;20029;-62
2023/12/20 12:08:33;;;;;;;13.18;2.00;;;;;;;8.21;76.02;100883.25;7391382;19;20033;-62
2023/12/20 12:11:04;;;;;;;10.90;1.58;;;;;;;8.25;75.59;100890.03;7391852;19;20018;-61
2023/12/20 12:13:32;;;;;;;9.48;2.33;;;;;;;8.23;75.43;100874.28;7390401;19;20035;-61
2023/12/20 12:16:00;;;;;;;9.23;1.70;;;;;;;8.23;75.94;100887.47;7392661;19;20010;-62
2023/12/20 12:18:29;;;;;;;10.20;1.77;;;;;;;8.12;76.06;100899.63;7389791;19;20022;-62
2023/12/20 12:21:02;;;;;;;11.02;1.80;;;;;;;8.05;76.48;100881.56;7392317;19;20010;-62
2023/12/20 12:23:42;;;;;;;8.32;1.80;;;;;;;7.94;76.28;100877.88;7390169;19;20026;-62
2023/12/20 12:26:09;;;;;;;11.23;1.88;;;;;;;7.85;77.44;100883.69;7389954;19;20033;-63
2023/12/20 12:28:40;;;;;;;10.43;1.75;;;;;;;7.88;77.86;100884.34;7390647;19;20029;-62
2023/12/20 12:31:28;;;;;;;8.05;1.83;;;;;;;7.77;78.23;100898.19;7392005;19;20019;-62
2023/12/20 12:33:56;;;;;;;9.43;1.90;;;;;;;7.69;78.52;100887.25;7390080;19;20026;-62
2023/12/20 12:36:25;;;;;;;9.25;1.70;;;;;;;7.79;78.63;100885.75;7392208;19;20011;-61
2023/12/20 12:38:57;;;;;;;9.80;2.00;;;;;;;8.03;77.91;100880.78;7388797;19;20017;-62
2023/12/20 12:41:25;;;;;;;11.50;2.60;;;;;;;8.11;77.00;100888.22;7395188;19;20090;-63
2023/12/20 12:43:53;;;;;;;14.80;2.65;;;;;;;8.04;75.16;100882.47;7398844;19;20018;-61
2023/12/20 12:46:25;;;;;;;11.75;2.30;;;;;;;8.12;75.49;100884.66;7397288;19;20364;-61
2023/12/20 12:48:53;;;;;;;15.55;3.15;;;;;;;8.16;75.13;100891.44;7397113;19;20022;-63
2023/12/20 12:51:21;;;;;;;16.00;3.25;;;;;;;8.13;75.20;100896.03;7399029;19;20047;-61
2023/12/20 12:53:49;;;;;;;13.57;3.17;;;;;;;8.11;75.56;100887.38;7397480;19;20050;-62
2023/12/20 12:56:17;;;;;;;12.48;2.22;;;;;;;8.07;76.18;100884.09;7396927;19;20049;-62
2023/12/20 12:58:46;;;;;;;11.15;2.50;;;;;;;8.09;76.27;100884.84;7395438;19;20042;-62
2023/12/20 13:01:14;;;;;;;16.58;2.65;;;;;;;8.26;76.18;100891.72;7396049;19;20011;-62
2023/12/20 13:03:42;;;;;;;15.63;2.65;;;;;;;8.27;76.23;100899.53;7396863;19;20010;-62
2023/12/20 13:06:10;;;;;;;11.95;2.03;;;;;;;8.12;76.55;100887.28;7398489;19;20018;-62
2023/12/20 13:08:41;;;;;;;13.25;2.97;;;;;;;8.02;76.48;100878.25;7395641;19;20018;-62
2023/12/20 13:11:09;;;;;;;16.58;2.78;;;;;;;8.07;75.88;100882.28;7397999;19;20050;-62
2023/12/20 13:13:37;;;;;;;8.82;2.33;;;;;;;8.10;75.21;100890.97;7397211;19;20026;-62
2023/12/20 13:16:05;;;;;;;11.45;2.13;;;;;;;8.11;75.19;100876.84;7398426;19;20018;-62
2023/12/20 13:18:33;;;;;;;13.70;2.15;;;;;;;8.00;75.35;100872.22;7395085;19;20335;-62
2023/12/20 13:21:02;;;;;;;12.70;2.20;;;;;;;8.13;75.22;100874.94;7397453;19;20022;-62
2023/12/20 13:23:30;;;;;;;11.13;1.85;;;;;;;8.19;74.80;100879.84;7397948;19;20014;-62
2023/12/20 13:25:58;;;;;;;11.48;2.30;;;;;;;8.22;74.62;100883.16;7396428;19;20047;-61
2023/12/20 13:28:26;;;;;;;9.52;1.85;;;;;;;8.21;74.66;100881.47;7396284;19;20026;-62
2023/12/20 13:30:54;;;;;;;11.52;2.10;;;;;;;8.10;74.70;100885.69;7397381;19;20035;-62
2023/12/20 13:33:22;;;;;;;14.75;2.28;;;;;;;7.97;75.12;100880.31;7397165;19;20535;-62
2023/12/20 13:35:50;;;;;;;10.90;2.30;;;;;;;7.99;75.60;100884.56;7397046;19;20022;-62
2023/12/20 13:38:18;;;;;;;10.75;1.98;;;;;;;7.90;75.52;100873.69;7396365;19;20022;-62
2023/12/20 13:40:46;;;;;;;9.38;2.00;;;;;;;7.92;76.09;100867.41;7396861;19;20038;-62
2023/12/20 13:43:16;;;;;;;10.48;1.83;;;;;;;8.09;75.87;100878.72;7392796;19;20029;-62
2023/12/20 13:45:44;;;;;;;9.85;2.08;;;;;;;8.15;75.76;100878.34;7396968;19;20021;-62
2023/12/20 13:48:12;;;;;;;11.27;2.38;;;;;;;8.15;75.84;100881.81;7395843;19;20015;-61
2023/12/20 13:50:40;;;;;;;10.27;2.10;;;;;;;8.08;75.95;100883.13;7395603;19;20102;-64
2023/12/20 13:53:08;;;;;;;12.23;2.45;;;;;;;8.10;76.23;100875.16;7395629;19;20487;-64
2023/12/20 13:55:36;;;;;;;15.73;3.10;;;;;;;8.09;76.17;100874.31;7395954;19;20491;-66
2023/12/20 13:58:04;;;;;;;14.32;2.42;;;;;;;8.12;76.12;100870.59;7395934;19;20042;-66
2023/12/20 14:00:32;;;;;;;14.93;2.35;;;;;;;8.19;75.68;100869.28;7395346;19;20451;-66
2023/12/20 14:03:01;;;;;;;9.95;2.15;;;;;;;8.23;75.39;100869.00;7392372;19;20029;-66
2023/12/20 14:05:29;;;;;;;14.27;2.53;;;;;;;8.11;75.91;100871.56;7394649;19;20014;-65
2023/12/20 14:07:57;;;;;;;13.10;2.28;;;;;;;8.18;75.23;100865.81;7394719;19;20026;-65
2023/12/20 14:10:29;;;;;;;12.02;2.35;;;;;;;8.18;75.04;100876.38;7393726;19;20050;-65
2023/12/20 14:12:57;;;;;;;13.25;2.35;;;;;;;8.11;75.30;100869.78;7396036;19;20018;-63
2023/12/20 14:15:25;;;;;;;11.23;2.00;;;;;;;8.11;75.53;100864.50;7394458;19;20039;-65
2023/12/20 14:17:54;;;;;;;13.05;2.33;;;;;;;8.05;75.37;100865.72;7396088;19;20018;-65
2023/12/20 14:20:22;;;;;;;18.85;2.70;;;;;;;7.94;75.21;100862.91;7392472;19;20019;-65
2023/12/20 14:22:51;;;;;;;12.27;2.45;;;;;;;7.93;75.81;100858.53;7394194;19;20015;-64
2023/12/20 14:25:19;;;;;;;9.60;2.08;;;;;;;8.02;75.27;100857.16;7395539;19;20014;-64
2023/12/20 14:27:47;;;;;;;14.80;2.30;;;;;;;8.10;75.05;100846.13;7393879;19;20086;-65
2023/12/20 14:30:16;;;;;;;18.67;2.75;;;;;;;8.09;74.71;100850.56;7392937;19;20020;-63
2023/12/20 14:32:45;;;;;;;14.05;2.08;;;;;;;8.03;74.86;100853.56;7395488;19;20113;-64
2023/12/20 14:35:13;;;;;;;11.40;2.35;;;;;;;8.01;74.81;100851.03;7395198;19;20028;-64
2023/12/20 14:37:41;;;;;;;16.05;2.60;;;;;;;7.97;74.91;100852.13;7393264;19;20419;-66
2023/12/20 14:40:14;;;;;;;12.35;1.92;;;;;;;8.05;74.90;100868.38;7390996;19;20026;-64
2023/12/20 14:42:46;;;;;;;13.02;2.47;;;;;;;8.02;74.62;100867.72;7392282;19;20020;-63
2023/12/20 14:45:16;;;;;;;15.25;2.60;;;;;;;8.04;74.33;100882.47;7395412;19;20019;-64
2023/12/20 14:47:44;;;;;;;11.07;2.15;;;;;;;7.98;74.41;100872.31;7394936;19;20019;-64
2023/12/20 14:50:17;;;;;;;9.48;1.73;;;;;;;7.98;74.34;100874.13;7392096;19;20035;-64
2023/12/20 14:52:46;;;;;;;16.57;2.33;;;;;;;7.91;73.96;100868.34;7392905;19;20029;-64
2023/12/20 14:55:13;;;;;;;13.90;2.10;;;;;;;7.95;74.31;100863.75;7394805;19;20243;-63
2023/12/20 14:57:41;;;;;;;12.32;2.08;;;;;;;8.03;73.95;100864.97;7394201;19;20035;-63